sensor_id;sensor_type;location;lat;lon;timestamp;temperature;humidity
15959;DHT22;8078;47.822;9.402;2022-11-06T00:01:59;3.40;99.90
15959;DHT22;8078;47.822;9.402;2022-11-06T00:04:28;3.40;99.90
15959;DHT22;8078;47.822;9.402;2022-11-06T00:06:54;3.60;99.90
15959;DHT22;8078;47.822;9.402;2022-11-06T00:09:20;3.70;99.90
15959;DHT22;8078;47.822;9.402;2022-11-06T00:11:47;3.70;99.90
15959;DHT22;8078;47.822;9.402;2022-11-06T00:14:13;3.80;99.90
15959;DHT22;8078;47.822;9.402;2022-11-06T00:16:40;3.80;99.90
15959;DHT22;8078;47.822;9.402;2022-11-06T00:19:07;3.90;99.90
15959;DHT22;8078;47.822;9.402;2022-11-06T00:21:33;3.90;99.90
15959;DHT22;8078;47.822;9.402;2022-11-06T00:24:02;4.00;99.90
15959;DHT22;8078;47.822;9.402;2022-11-06T00:26:29;4.10;99.90
15959;DHT22;8078;47.822;9.402;2022-11-06T00:28:56;4.10;99.90
15959;DHT22;8078;47.822;9.402;2022-11-06T00:31:24;4.10;99.90
15959;DHT22;8078;47.822;9.402;2022-11-06T00:33:51;4.10;99.90
15959;DHT22;8078;47.822;9.402;2022-11-06T00:36:19;4.10;99.90
15959;DHT22;8078;47.822;9.402;2022-11-06T00:38:45;4.20;99.90
15959;DHT22;8078;47.822;9.402;2022-11-06T00:41:13;4.20;99.90
15959;DHT22;8078;47.822;9.402;2022-11-06T00:43:40;4.20;99.90
15959;DHT22;8078;47.822;9.402;2022-11-06T00:46:10;4.20;99.90
15959;DHT22;8078;47.822;9.402;2022-11-06T00:48:36;4.20;99.90
15959;DHT22;8078;47.822;9.402;2022-11-06T00:51:07;4.20;99.90
15959;DHT22;8078;47.822;9.402;2022-11-06T00:53:33;4.20;99.90
15959;DHT22;8078;47.822;9.402;2022-11-06T00:56:07;4.20;99.90
15959;DHT22;8078;47.822;9.402;2022-11-06T00:58:33;4.20;99.90
15959;DHT22;8078;47.822;9.402;2022-11-06T01:01:17;4.10;99.90
15959;DHT22;8078;47.822;9.402;2022-11-06T01:03:45;4.20;99.90
15959;DHT22;8078;47.822;9.402;2022-11-06T01:08:38;4.10;99.90
15959;DHT22;8078;47.822;9.402;2022-11-06T01:11:16;4.10;99.90
15959;DHT22;8078;47.822;9.402;2022-11-06T01:13:43;4.10;99.90
15959;DHT22;8078;47.822;9.402;2022-11-06T01:16:12;4.10;99.90
15959;DHT22;8078;47.822;9.402;2022-11-06T01:18:38;4.10;99.90
15959;DHT22;8078;47.822;9.402;2022-11-06T01:21:06;4.10;99.90
15959;DHT22;8078;47.822;9.402;2022-11-06T01:23:32;4.10;99.90
15959;DHT22;8078;47.822;9.402;2022-11-06T01:25:59;4.00;99.90
15959;DHT22;8078;47.822;9.402;2022-11-06T01:28:26;4.00;99.90
15959;DHT22;8078;47.822;9.402;2022-11-06T01:30:52;4.00;99.90
15959;DHT22;8078;47.822;9.402;2022-11-06T01:33:17;4.00;99.90
15959;DHT22;8078;47.822;9.402;2022-11-06T01:35:47;4.00;99.90
15959;DHT22;8078;47.822;9.402;2022-11-06T01:38:13;3.90;99.90
15959;DHT22;8078;47.822;9.402;2022-11-06T01:40:44;3.80;99.90
15959;DHT22;8078;47.822;9.402;2022-11-06T01:46:07;3.60;99.90
15959;DHT22;8078;47.822;9.402;2022-11-06T01:48:32;3.50;99.90
15959;DHT22;8078;47.822;9.402;2022-11-06T01:50:58;3.50;99.90
15959;DHT22;8078;47.822;9.402;2022-11-06T01:53:24;3.40;99.90
15959;DHT22;8078;47.822;9.402;2022-11-06T01:55:54;3.30;99.90
15959;DHT22;8078;47.822;9.402;2022-11-06T01:58:21;3.20;99.90
15959;DHT22;8078;47.822;9.402;2022-11-06T02:00:48;3.20;99.90
15959;DHT22;8078;47.822;9.402;2022-11-06T02:03:14;3.20;99.90
15959;DHT22;8078;47.822;9.402;2022-11-06T02:05:41;3.10;99.90
15959;DHT22;8078;47.822;9.402;2022-11-06T02:08:09;3.10;99.90
15959;DHT22;8078;47.822;9.402;2022-11-06T02:10:36;3.10;99.90
15959;DHT22;8078;47.822;9.402;2022-11-06T02:27:21;3.10;99.90
15959;DHT22;8078;47.822;9.402;2022-11-06T02:32:21;3.00;99.90
15959;DHT22;8078;47.822;9.402;2022-11-06T02:34:48;3.00;99.90
15959;DHT22;8078;47.822;9.402;2022-11-06T02:37:25;2.90;99.90
15959;DHT22;8078;47.822;9.402;2022-11-06T02:39:51;3.00;99.90
15959;DHT22;8078;47.822;9.402;2022-11-06T02:42:20;3.00;99.90
15959;DHT22;8078;47.822;9.402;2022-11-06T02:44:49;3.00;99.90
15959;DHT22;8078;47.822;9.402;2022-11-06T02:47:18;3.00;99.90
15959;DHT22;8078;47.822;9.402;2022-11-06T02:49:54;3.00;99.90
15959;DHT22;8078;47.822;9.402;2022-11-06T02:52:26;3.00;99.90
15959;DHT22;8078;47.822;9.402;2022-11-06T02:54:59;2.90;99.90
15959;DHT22;8078;47.822;9.402;2022-11-06T02:57:29;2.90;99.90
15959;DHT22;8078;47.822;9.402;2022-11-06T03:02:36;2.70;99.90
15959;DHT22;8078;47.822;9.402;2022-11-06T03:05:18;2.70;99.90
15959;DHT22;8078;47.822;9.402;2022-11-06T03:10:21;2.70;99.90
15959;DHT22;8078;47.822;9.402;2022-11-06T03:12:55;2.80;99.90
15959;DHT22;8078;47.822;9.402;2022-11-06T03:16:01;2.80;99.90
15959;DHT22;8078;47.822;9.402;2022-11-06T03:18:49;2.80;99.90
15959;DHT22;8078;47.822;9.402;2022-11-06T03:21:23;2.90;99.90
15959;DHT22;8078;47.822;9.402;2022-11-06T03:23:54;3.00;99.90
15959;DHT22;8078;47.822;9.402;2022-11-06T03:26:32;3.00;99.90
15959;DHT22;8078;47.822;9.402;2022-11-06T03:29:09;3.00;99.90
15959;DHT22;8078;47.822;9.402;2022-11-06T03:31:39;3.00;99.90
15959;DHT22;8078;47.822;9.402;2022-11-06T03:34:11;3.00;99.90
15959;DHT22;8078;47.822;9.402;2022-11-06T03:36:42;3.00;99.90
15959;DHT22;8078;47.822;9.402;2022-11-06T03:39:14;2.90;99.90
15959;DHT22;8078;47.822;9.402;2022-11-06T03:41:52;2.90;99.90
15959;DHT22;8078;47.822;9.402;2022-11-06T03:44:20;2.90;99.90
15959;DHT22;8078;47.822;9.402;2022-11-06T03:46:52;2.90;99.90
15959;DHT22;8078;47.822;9.402;2022-11-06T03:49:25;2.90;99.90
15959;DHT22;8078;47.822;9.402;2022-11-06T03:51:59;2.90;99.90
15959;DHT22;8078;47.822;9.402;2022-11-06T03:54:30;2.90;99.90
15959;DHT22;8078;47.822;9.402;2022-11-06T03:59:33;2.90;99.90
15959;DHT22;8078;47.822;9.402;2022-11-06T04:02:00;2.90;99.90
15959;DHT22;8078;47.822;9.402;2022-11-06T04:04:32;3.00;99.90
15959;DHT22;8078;47.822;9.402;2022-11-06T04:07:04;2.90;99.90
15959;DHT22;8078;47.822;9.402;2022-11-06T04:09:33;2.90;99.90
15959;DHT22;8078;47.822;9.402;2022-11-06T04:12:21;2.90;99.90
15959;DHT22;8078;47.822;9.402;2022-11-06T04:15:09;2.80;99.90
15959;DHT22;8078;47.822;9.402;2022-11-06T04:17:36;2.80;99.90
15959;DHT22;8078;47.822;9.402;2022-11-06T04:20:07;2.80;99.90
15959;DHT22;8078;47.822;9.402;2022-11-06T04:30:32;2.90;99.90
15959;DHT22;8078;47.822;9.402;2022-11-06T04:33:14;2.90;99.90
15959;DHT22;8078;47.822;9.402;2022-11-06T04:36:26;2.90;99.90
15959;DHT22;8078;47.822;9.402;2022-11-06T04:39:08;2.90;99.90
15959;DHT22;8078;47.822;9.402;2022-11-06T04:44:18;2.90;99.90
15959;DHT22;8078;47.822;9.402;2022-11-06T04:46:52;2.90;99.90
15959;DHT22;8078;47.822;9.402;2022-11-06T04:49:19;3.00;99.90
15959;DHT22;8078;47.822;9.402;2022-11-06T04:51:46;3.00;99.90
15959;DHT22;8078;47.822;9.402;2022-11-06T04:54:13;3.00;99.90
15959;DHT22;8078;47.822;9.402;2022-11-06T04:56:39;3.00;99.90
15959;DHT22;8078;47.822;9.402;2022-11-06T04:59:05;2.90;99.90
15959;DHT22;8078;47.822;9.402;2022-11-06T05:01:31;3.00;99.90
15959;DHT22;8078;47.822;9.402;2022-11-06T05:03:57;3.00;99.90
15959;DHT22;8078;47.822;9.402;2022-11-06T05:06:22;2.90;99.90
15959;DHT22;8078;47.822;9.402;2022-11-06T05:08:48;2.90;99.90
15959;DHT22;8078;47.822;9.402;2022-11-06T05:11:13;2.90;99.90
15959;DHT22;8078;47.822;9.402;2022-11-06T05:13:39;2.90;99.90
15959;DHT22;8078;47.822;9.402;2022-11-06T05:16:05;2.90;99.90
15959;DHT22;8078;47.822;9.402;2022-11-06T05:18:31;2.90;99.90
15959;DHT22;8078;47.822;9.402;2022-11-06T05:21:00;2.80;99.90
15959;DHT22;8078;47.822;9.402;2022-11-06T05:23:45;2.80;99.90
15959;DHT22;8078;47.822;9.402;2022-11-06T05:26:10;2.80;99.90
15959;DHT22;8078;47.822;9.402;2022-11-06T05:28:36;2.80;99.90
15959;DHT22;8078;47.822;9.402;2022-11-06T05:31:02;2.80;99.90
15959;DHT22;8078;47.822;9.402;2022-11-06T05:33:28;2.80;99.90
15959;DHT22;8078;47.822;9.402;2022-11-06T05:35:53;2.80;99.90
15959;DHT22;8078;47.822;9.402;2022-11-06T05:38:19;2.70;99.90
15959;DHT22;8078;47.822;9.402;2022-11-06T05:40:44;2.70;99.90
15959;DHT22;8078;47.822;9.402;2022-11-06T05:43:11;2.70;99.90
15959;DHT22;8078;47.822;9.402;2022-11-06T05:45:36;2.60;99.90
15959;DHT22;8078;47.822;9.402;2022-11-06T05:48:02;2.60;99.90
15959;DHT22;8078;47.822;9.402;2022-11-06T05:50:27;2.60;99.90
15959;DHT22;8078;47.822;9.402;2022-11-06T05:52:53;2.60;99.90
15959;DHT22;8078;47.822;9.402;2022-11-06T05:55:18;2.60;99.90
15959;DHT22;8078;47.822;9.402;2022-11-06T05:57:44;2.60;99.90
15959;DHT22;8078;47.822;9.402;2022-11-06T06:00:11;2.60;99.90
15959;DHT22;8078;47.822;9.402;2022-11-06T06:02:37;2.50;99.90
15959;DHT22;8078;47.822;9.402;2022-11-06T06:05:03;2.50;99.90
15959;DHT22;8078;47.822;9.402;2022-11-06T06:07:30;2.50;99.90
15959;DHT22;8078;47.822;9.402;2022-11-06T06:09:55;2.50;99.90
15959;DHT22;8078;47.822;9.402;2022-11-06T06:12:21;2.50;99.90
15959;DHT22;8078;47.822;9.402;2022-11-06T06:14:53;2.40;99.90
15959;DHT22;8078;47.822;9.402;2022-11-06T06:17:19;2.40;99.90
15959;DHT22;8078;47.822;9.402;2022-11-06T06:19:45;2.50;99.90
15959;DHT22;8078;47.822;9.402;2022-11-06T06:22:11;2.40;99.90
15959;DHT22;8078;47.822;9.402;2022-11-06T06:24:36;2.50;99.90
15959;DHT22;8078;47.822;9.402;2022-11-06T06:27:02;2.50;99.90
15959;DHT22;8078;47.822;9.402;2022-11-06T06:29:28;2.60;99.90
15959;DHT22;8078;47.822;9.402;2022-11-06T06:31:53;2.60;99.90
15959;DHT22;8078;47.822;9.402;2022-11-06T06:34:19;2.70;99.90
15959;DHT22;8078;47.822;9.402;2022-11-06T06:36:48;2.80;99.90
15959;DHT22;8078;47.822;9.402;2022-11-06T06:39:14;2.90;99.90
15959;DHT22;8078;47.822;9.402;2022-11-06T06:41:39;3.00;99.90
15959;DHT22;8078;47.822;9.402;2022-11-06T06:44:05;3.10;99.90
15959;DHT22;8078;47.822;9.402;2022-11-06T06:46:30;3.20;99.90
15959;DHT22;8078;47.822;9.402;2022-11-06T06:48:56;3.30;99.90
15959;DHT22;8078;47.822;9.402;2022-11-06T06:51:21;3.40;99.90
15959;DHT22;8078;47.822;9.402;2022-11-06T06:53:47;3.50;99.90
15959;DHT22;8078;47.822;9.402;2022-11-06T06:56:12;3.60;99.90
15959;DHT22;8078;47.822;9.402;2022-11-06T06:58:38;3.60;99.90
15959;DHT22;8078;47.822;9.402;2022-11-06T07:01:05;3.60;99.90
15959;DHT22;8078;47.822;9.402;2022-11-06T07:03:31;3.60;99.90
15959;DHT22;8078;47.822;9.402;2022-11-06T07:05:58;3.50;99.90
15959;DHT22;8078;47.822;9.402;2022-11-06T07:08:25;3.60;99.90
15959;DHT22;8078;47.822;9.402;2022-11-06T07:10:50;3.70;99.90
15959;DHT22;8078;47.822;9.402;2022-11-06T07:13:16;3.70;99.90
15959;DHT22;8078;47.822;9.402;2022-11-06T07:15:41;3.80;99.90
15959;DHT22;8078;47.822;9.402;2022-11-06T07:18:08;3.80;99.90
15959;DHT22;8078;47.822;9.402;2022-11-06T07:20:34;3.90;99.90
15959;DHT22;8078;47.822;9.402;2022-11-06T07:23:09;3.90;99.90
15959;DHT22;8078;47.822;9.402;2022-11-06T07:25:35;3.90;99.90
15959;DHT22;8078;47.822;9.402;2022-11-06T07:28:01;3.90;99.90
15959;DHT22;8078;47.822;9.402;2022-11-06T07:30:28;4.00;99.90
15959;DHT22;8078;47.822;9.402;2022-11-06T07:32:53;4.10;99.90
15959;DHT22;8078;47.822;9.402;2022-11-06T07:35:19;4.20;99.90
15959;DHT22;8078;47.822;9.402;2022-11-06T07:37:44;4.30;99.90
15959;DHT22;8078;47.822;9.402;2022-11-06T07:40:10;4.30;99.90
15959;DHT22;8078;47.822;9.402;2022-11-06T07:42:35;4.40;99.90
15959;DHT22;8078;47.822;9.402;2022-11-06T07:45:01;4.60;99.90
15959;DHT22;8078;47.822;9.402;2022-11-06T07:47:29;4.70;99.90
15959;DHT22;8078;47.822;9.402;2022-11-06T07:49:54;4.80;99.90
15959;DHT22;8078;47.822;9.402;2022-11-06T07:52:20;4.90;99.90
15959;DHT22;8078;47.822;9.402;2022-11-06T07:54:46;4.90;99.90
15959;DHT22;8078;47.822;9.402;2022-11-06T07:57:12;5.00;99.90
15959;DHT22;8078;47.822;9.402;2022-11-06T07:59:37;5.10;99.90
15959;DHT22;8078;47.822;9.402;2022-11-06T08:02:03;5.10;99.90
15959;DHT22;8078;47.822;9.402;2022-11-06T08:04:29;5.20;99.90
15959;DHT22;8078;47.822;9.402;2022-11-06T08:06:56;5.30;99.90
15959;DHT22;8078;47.822;9.402;2022-11-06T08:09:22;5.30;99.90
15959;DHT22;8078;47.822;9.402;2022-11-06T08:11:49;5.40;99.90
15959;DHT22;8078;47.822;9.402;2022-11-06T08:14:15;5.50;99.90
15959;DHT22;8078;47.822;9.402;2022-11-06T08:16:41;5.50;99.90
15959;DHT22;8078;47.822;9.402;2022-11-06T08:19:07;5.60;99.90
15959;DHT22;8078;47.822;9.402;2022-11-06T08:21:33;5.60;99.90
15959;DHT22;8078;47.822;9.402;2022-11-06T08:23:59;5.60;99.90
15959;DHT22;8078;47.822;9.402;2022-11-06T08:26:24;5.60;99.90
15959;DHT22;8078;47.822;9.402;2022-11-06T08:28:50;5.60;99.90
15959;DHT22;8078;47.822;9.402;2022-11-06T08:31:16;5.60;99.90
15959;DHT22;8078;47.822;9.402;2022-11-06T08:33:42;5.70;99.90
15959;DHT22;8078;47.822;9.402;2022-11-06T08:36:08;5.60;99.90
15959;DHT22;8078;47.822;9.402;2022-11-06T08:38:34;5.60;99.90
15959;DHT22;8078;47.822;9.402;2022-11-06T08:41:09;5.60;99.90
15959;DHT22;8078;47.822;9.402;2022-11-06T08:43:35;5.60;99.90
15959;DHT22;8078;47.822;9.402;2022-11-06T08:46:02;5.70;99.90
15959;DHT22;8078;47.822;9.402;2022-11-06T08:48:28;5.80;99.90
15959;DHT22;8078;47.822;9.402;2022-11-06T08:50:53;5.80;99.90
15959;DHT22;8078;47.822;9.402;2022-11-06T08:53:19;5.90;99.90
15959;DHT22;8078;47.822;9.402;2022-11-06T08:55:45;6.00;99.90
15959;DHT22;8078;47.822;9.402;2022-11-06T08:58:10;6.10;99.90
15959;DHT22;8078;47.822;9.402;2022-11-06T09:00:36;6.10;99.90
15959;DHT22;8078;47.822;9.402;2022-11-06T09:03:05;6.20;99.90
15959;DHT22;8078;47.822;9.402;2022-11-06T09:05:30;6.30;99.90
15959;DHT22;8078;47.822;9.402;2022-11-06T09:07:56;6.50;99.90
15959;DHT22;8078;47.822;9.402;2022-11-06T09:10:23;6.50;99.90
15959;DHT22;8078;47.822;9.402;2022-11-06T09:12:48;6.80;99.90
15959;DHT22;8078;47.822;9.402;2022-11-06T09:15:14;6.90;99.90
15959;DHT22;8078;47.822;9.402;2022-11-06T09:17:47;7.20;99.90
15959;DHT22;8078;47.822;9.402;2022-11-06T09:20:14;7.40;99.90
15959;DHT22;8078;47.822;9.402;2022-11-06T09:22:40;7.50;99.90
15959;DHT22;8078;47.822;9.402;2022-11-06T09:25:07;7.60;99.90
15959;DHT22;8078;47.822;9.402;2022-11-06T09:27:40;7.70;99.90
15959;DHT22;8078;47.822;9.402;2022-11-06T09:30:07;7.80;99.90
15959;DHT22;8078;47.822;9.402;2022-11-06T09:32:33;7.80;99.90
15959;DHT22;8078;47.822;9.402;2022-11-06T09:34:58;7.80;99.90
15959;DHT22;8078;47.822;9.402;2022-11-06T09:37:24;8.00;99.90
15959;DHT22;8078;47.822;9.402;2022-11-06T09:39:50;8.10;99.90
15959;DHT22;8078;47.822;9.402;2022-11-06T09:42:35;8.00;99.90
15959;DHT22;8078;47.822;9.402;2022-11-06T09:45:16;8.20;99.90
15959;DHT22;8078;47.822;9.402;2022-11-06T09:47:53;8.40;99.90
15959;DHT22;8078;47.822;9.402;2022-11-06T09:50:24;8.40;99.90
15959;DHT22;8078;47.822;9.402;2022-11-06T09:52:54;8.40;99.90
15959;DHT22;8078;47.822;9.402;2022-11-06T09:55:26;8.30;99.90
15959;DHT22;8078;47.822;9.402;2022-11-06T10:00:42;8.60;99.90
15959;DHT22;8078;47.822;9.402;2022-11-06T10:03:37;8.60;99.90
15959;DHT22;8078;47.822;9.402;2022-11-06T10:06:03;8.70;99.90
15959;DHT22;8078;47.822;9.402;2022-11-06T10:08:29;8.90;99.90
15959;DHT22;8078;47.822;9.402;2022-11-06T10:19:38;9.30;99.90
15959;DHT22;8078;47.822;9.402;2022-11-06T10:27:28;10.00;99.90
15959;DHT22;8078;47.822;9.402;2022-11-06T10:30:22;10.10;99.90
15959;DHT22;8078;47.822;9.402;2022-11-06T10:33:02;10.10;99.90
15959;DHT22;8078;47.822;9.402;2022-11-06T10:36:02;10.30;99.90
15959;DHT22;8078;47.822;9.402;2022-11-06T10:38:35;10.60;99.90
15959;DHT22;8078;47.822;9.402;2022-11-06T10:41:02;10.60;99.90
15959;DHT22;8078;47.822;9.402;2022-11-06T10:46:13;10.80;99.90
15959;DHT22;8078;47.822;9.402;2022-11-06T10:49:10;10.70;99.90
15959;DHT22;8078;47.822;9.402;2022-11-06T10:51:57;10.40;99.90
15959;DHT22;8078;47.822;9.402;2022-11-06T10:54:44;9.90;99.90
15959;DHT22;8078;47.822;9.402;2022-11-06T10:57:36;9.40;99.90
15959;DHT22;8078;47.822;9.402;2022-11-06T11:00:04;9.40;99.90
15959;DHT22;8078;47.822;9.402;2022-11-06T11:02:33;9.30;99.90
15959;DHT22;8078;47.822;9.402;2022-11-06T11:04:59;9.40;99.90
15959;DHT22;8078;47.822;9.402;2022-11-06T11:07:30;9.80;99.90
15959;DHT22;8078;47.822;9.402;2022-11-06T11:09:58;10.20;99.90
15959;DHT22;8078;47.822;9.402;2022-11-06T11:12:28;10.50;99.90
15959;DHT22;8078;47.822;9.402;2022-11-06T11:15:09;10.80;99.90
15959;DHT22;8078;47.822;9.402;2022-11-06T11:17:36;10.80;99.90
15959;DHT22;8078;47.822;9.402;2022-11-06T11:20:03;10.60;99.90
15959;DHT22;8078;47.822;9.402;2022-11-06T11:22:29;10.70;99.90
15959;DHT22;8078;47.822;9.402;2022-11-06T11:25:17;10.80;99.90
15959;DHT22;8078;47.822;9.402;2022-11-06T11:27:48;11.10;99.90
15959;DHT22;8078;47.822;9.402;2022-11-06T11:30:23;11.20;99.90
15959;DHT22;8078;47.822;9.402;2022-11-06T11:32:51;10.00;99.90
15959;DHT22;8078;47.822;9.402;2022-11-06T11:35:21;9.00;99.90
15959;DHT22;8078;47.822;9.402;2022-11-06T11:37:48;9.40;99.90
15959;DHT22;8078;47.822;9.402;2022-11-06T11:40:37;9.80;99.90
15959;DHT22;8078;47.822;9.402;2022-11-06T11:43:24;10.20;99.90
15959;DHT22;8078;47.822;9.402;2022-11-06T11:48:41;10.60;99.90
15959;DHT22;8078;47.822;9.402;2022-11-06T11:56:49;11.20;99.90
15959;DHT22;8078;47.822;9.402;2022-11-06T11:59:25;11.30;99.90
15959;DHT22;8078;47.822;9.402;2022-11-06T12:01:53;11.50;99.90
15959;DHT22;8078;47.822;9.402;2022-11-06T12:04:30;11.20;99.90
15959;DHT22;8078;47.822;9.402;2022-11-06T12:07:02;10.90;99.90
15959;DHT22;8078;47.822;9.402;2022-11-06T12:09:32;11.20;99.90
15959;DHT22;8078;47.822;9.402;2022-11-06T12:11:59;11.20;99.90
15959;DHT22;8078;47.822;9.402;2022-11-06T12:14:35;11.10;99.90
15959;DHT22;8078;47.822;9.402;2022-11-06T12:17:07;11.10;99.90
15959;DHT22;8078;47.822;9.402;2022-11-06T12:19:36;11.20;99.90
15959;DHT22;8078;47.822;9.402;2022-11-06T12:22:15;11.50;99.90
15959;DHT22;8078;47.822;9.402;2022-11-06T12:25:04;11.70;99.90
15959;DHT22;8078;47.822;9.402;2022-11-06T12:27:40;11.90;99.90
15959;DHT22;8078;47.822;9.402;2022-11-06T12:32:49;11.40;99.90
15959;DHT22;8078;47.822;9.402;2022-11-06T12:35:29;11.60;99.90
15959;DHT22;8078;47.822;9.402;2022-11-06T12:38:03;11.60;99.90
15959;DHT22;8078;47.822;9.402;2022-11-06T12:40:40;11.80;99.90
15959;DHT22;8078;47.822;9.402;2022-11-06T12:43:46;12.00;99.90
15959;DHT22;8078;47.822;9.402;2022-11-06T13:00:07;11.00;99.90
15959;DHT22;8078;47.822;9.402;2022-11-06T13:08:30;10.10;99.90
15959;DHT22;8078;47.822;9.402;2022-11-06T13:14:18;9.40;99.90
15959;DHT22;8078;47.822;9.402;2022-11-06T13:22:14;10.50;99.90
15959;DHT22;8078;47.822;9.402;2022-11-06T13:24:52;9.30;99.90
15959;DHT22;8078;47.822;9.402;2022-11-06T13:30:10;8.60;99.90
15959;DHT22;8078;47.822;9.402;2022-11-06T13:32:39;8.80;99.90
15959;DHT22;8078;47.822;9.402;2022-11-06T13:35:12;8.90;99.90
15959;DHT22;8078;47.822;9.402;2022-11-06T13:37:41;8.40;99.90
15959;DHT22;8078;47.822;9.402;2022-11-06T13:40:25;8.00;99.90
15959;DHT22;8078;47.822;9.402;2022-11-06T13:43:11;8.00;99.90
15959;DHT22;8078;47.822;9.402;2022-11-06T13:45:54;8.20;99.90
15959;DHT22;8078;47.822;9.402;2022-11-06T13:48:25;7.90;99.90
15959;DHT22;8078;47.822;9.402;2022-11-06T13:53:40;7.20;99.90
15959;DHT22;8078;47.822;9.402;2022-11-06T13:59:21;7.00;99.90
15959;DHT22;8078;47.822;9.402;2022-11-06T14:02:10;6.90;99.90
15959;DHT22;8078;47.822;9.402;2022-11-06T14:07:27;6.90;99.90
15959;DHT22;8078;47.822;9.402;2022-11-06T14:09:54;7.00;99.90
15959;DHT22;8078;47.822;9.402;2022-11-06T14:12:21;6.90;99.90
15959;DHT22;8078;47.822;9.402;2022-11-06T14:14:47;6.80;99.90
15959;DHT22;8078;47.822;9.402;2022-11-06T14:20:00;6.60;99.90
15959;DHT22;8078;47.822;9.402;2022-11-06T14:24:54;6.30;99.90
15959;DHT22;8078;47.822;9.402;2022-11-06T14:34:48;6.00;99.90
15959;DHT22;8078;47.822;9.402;2022-11-06T14:42:31;5.80;99.90
15959;DHT22;8078;47.822;9.402;2022-11-06T14:53:04;5.70;99.90
15959;DHT22;8078;47.822;9.402;2022-11-06T14:55:40;5.80;99.90
15959;DHT22;8078;47.822;9.402;2022-11-06T14:58:19;5.90;99.90
15959;DHT22;8078;47.822;9.402;2022-11-06T15:01:04;6.10;99.90
15959;DHT22;8078;47.822;9.402;2022-11-06T15:09:05;6.80;99.90
15959;DHT22;8078;47.822;9.402;2022-11-06T15:16:33;6.90;99.90
15959;DHT22;8078;47.822;9.402;2022-11-06T15:19:06;6.80;99.90
15959;DHT22;8078;47.822;9.402;2022-11-06T15:21:42;6.70;99.90
15959;DHT22;8078;47.822;9.402;2022-11-06T15:24:23;6.40;99.90
15959;DHT22;8078;47.822;9.402;2022-11-06T15:26:51;6.00;99.90
15959;DHT22;8078;47.822;9.402;2022-11-06T15:29:30;5.80;99.90
15959;DHT22;8078;47.822;9.402;2022-11-06T15:32:01;5.70;99.90
15959;DHT22;8078;47.822;9.402;2022-11-06T15:34:35;5.60;99.90
15959;DHT22;8078;47.822;9.402;2022-11-06T15:37:20;5.50;99.90
15959;DHT22;8078;47.822;9.402;2022-11-06T15:39:51;5.50;99.90
15959;DHT22;8078;47.822;9.402;2022-11-06T15:42:22;5.40;99.90
15959;DHT22;8078;47.822;9.402;2022-11-06T15:44:49;5.40;99.90
15959;DHT22;8078;47.822;9.402;2022-11-06T15:47:28;5.30;99.90
15959;DHT22;8078;47.822;9.402;2022-11-06T15:52:39;5.20;99.90
15959;DHT22;8078;47.822;9.402;2022-11-06T15:55:05;5.10;99.90
15959;DHT22;8078;47.822;9.402;2022-11-06T15:57:31;5.00;99.90
15959;DHT22;8078;47.822;9.402;2022-11-06T16:02:50;4.90;99.90
15959;DHT22;8078;47.822;9.402;2022-11-06T16:05:18;4.80;99.90
15959;DHT22;8078;47.822;9.402;2022-11-06T16:07:45;4.80;99.90
15959;DHT22;8078;47.822;9.402;2022-11-06T16:10:19;4.80;99.90
15959;DHT22;8078;47.822;9.402;2022-11-06T16:12:46;4.70;99.90
15959;DHT22;8078;47.822;9.402;2022-11-06T16:15:50;4.70;99.90
15959;DHT22;8078;47.822;9.402;2022-11-06T16:18:32;4.60;99.90
15959;DHT22;8078;47.822;9.402;2022-11-06T16:21:15;4.60;99.90
15959;DHT22;8078;47.822;9.402;2022-11-06T16:26:13;4.70;99.90
15959;DHT22;8078;47.822;9.402;2022-11-06T16:28:44;4.60;99.90
15959;DHT22;8078;47.822;9.402;2022-11-06T16:31:16;4.60;99.90
15959;DHT22;8078;47.822;9.402;2022-11-06T16:34:03;4.70;99.90
15959;DHT22;8078;47.822;9.402;2022-11-06T16:36:30;4.80;99.90
15959;DHT22;8078;47.822;9.402;2022-11-06T16:44:48;4.80;99.90
15959;DHT22;8078;47.822;9.402;2022-11-06T16:47:20;4.80;99.90
15959;DHT22;8078;47.822;9.402;2022-11-06T16:49:56;4.80;99.90
15959;DHT22;8078;47.822;9.402;2022-11-06T16:54:56;4.70;99.90
15959;DHT22;8078;47.822;9.402;2022-11-06T16:57:29;4.70;99.90
15959;DHT22;8078;47.822;9.402;2022-11-06T16:59:57;4.70;99.90
15959;DHT22;8078;47.822;9.402;2022-11-06T17:02:27;4.80;99.90
15959;DHT22;8078;47.822;9.402;2022-11-06T17:05:15;4.80;99.90
15959;DHT22;8078;47.822;9.402;2022-11-06T17:07:43;4.90;99.90
15959;DHT22;8078;47.822;9.402;2022-11-06T17:13:16;4.90;99.90
15959;DHT22;8078;47.822;9.402;2022-11-06T17:15:43;5.00;99.90
15959;DHT22;8078;47.822;9.402;2022-11-06T17:18:15;5.00;99.90
15959;DHT22;8078;47.822;9.402;2022-11-06T17:20:44;5.00;99.90
15959;DHT22;8078;47.822;9.402;2022-11-06T17:23:11;5.00;99.90
15959;DHT22;8078;47.822;9.402;2022-11-06T17:25:36;5.00;99.90
15959;DHT22;8078;47.822;9.402;2022-11-06T17:28:02;4.90;99.90
15959;DHT22;8078;47.822;9.402;2022-11-06T17:30:28;4.90;99.90
15959;DHT22;8078;47.822;9.402;2022-11-06T17:32:53;4.90;99.90
15959;DHT22;8078;47.822;9.402;2022-11-06T17:35:19;4.90;99.90
15959;DHT22;8078;47.822;9.402;2022-11-06T17:37:45;5.00;99.90
15959;DHT22;8078;47.822;9.402;2022-11-06T17:40:11;5.00;99.90
15959;DHT22;8078;47.822;9.402;2022-11-06T17:42:36;5.00;99.90
15959;DHT22;8078;47.822;9.402;2022-11-06T17:45:02;5.00;99.90
15959;DHT22;8078;47.822;9.402;2022-11-06T17:47:27;5.00;99.90
15959;DHT22;8078;47.822;9.402;2022-11-06T17:49:53;5.10;99.90
15959;DHT22;8078;47.822;9.402;2022-11-06T17:52:18;5.10;99.90
15959;DHT22;8078;47.822;9.402;2022-11-06T17:54:45;5.20;99.90
15959;DHT22;8078;47.822;9.402;2022-11-06T17:57:12;5.20;99.90
15959;DHT22;8078;47.822;9.402;2022-11-06T17:59:38;5.20;99.90
15959;DHT22;8078;47.822;9.402;2022-11-06T18:02:04;5.30;99.90
15959;DHT22;8078;47.822;9.402;2022-11-06T18:04:31;5.30;99.90
15959;DHT22;8078;47.822;9.402;2022-11-06T18:07:00;5.20;99.90
15959;DHT22;8078;47.822;9.402;2022-11-06T18:09:25;5.20;99.90
15959;DHT22;8078;47.822;9.402;2022-11-06T18:11:52;5.20;99.90
15959;DHT22;8078;47.822;9.402;2022-11-06T18:14:19;5.10;99.90
15959;DHT22;8078;47.822;9.402;2022-11-06T18:16:45;5.10;99.90
15959;DHT22;8078;47.822;9.402;2022-11-06T18:19:14;5.10;99.90
15959;DHT22;8078;47.822;9.402;2022-11-06T18:21:40;5.10;99.90
15959;DHT22;8078;47.822;9.402;2022-11-06T18:24:05;5.00;99.90
15959;DHT22;8078;47.822;9.402;2022-11-06T18:26:31;5.00;99.90
15959;DHT22;8078;47.822;9.402;2022-11-06T18:28:57;4.90;99.90
15959;DHT22;8078;47.822;9.402;2022-11-06T18:31:22;4.80;99.90
15959;DHT22;8078;47.822;9.402;2022-11-06T18:33:48;4.80;99.90
15959;DHT22;8078;47.822;9.402;2022-11-06T18:36:14;4.80;99.90
15959;DHT22;8078;47.822;9.402;2022-11-06T18:38:40;4.80;99.90
15959;DHT22;8078;47.822;9.402;2022-11-06T18:41:16;4.80;99.90
15959;DHT22;8078;47.822;9.402;2022-11-06T18:43:43;4.80;99.90
15959;DHT22;8078;47.822;9.402;2022-11-06T18:46:11;4.90;99.90
15959;DHT22;8078;47.822;9.402;2022-11-06T18:48:37;4.90;99.90
15959;DHT22;8078;47.822;9.402;2022-11-06T18:51:08;5.00;99.90
15959;DHT22;8078;47.822;9.402;2022-11-06T18:53:34;5.00;99.90
15959;DHT22;8078;47.822;9.402;2022-11-06T18:56:00;5.00;99.90
15959;DHT22;8078;47.822;9.402;2022-11-06T18:58:26;5.10;99.90
15959;DHT22;8078;47.822;9.402;2022-11-06T19:00:51;5.20;99.90
15959;DHT22;8078;47.822;9.402;2022-11-06T19:03:17;5.20;99.90
15959;DHT22;8078;47.822;9.402;2022-11-06T19:05:50;5.40;99.90